EBOSLFMT

Guest
Details From EBOS - Oostende
To LFMT - Montpellier/mediterranee
Flight Number -
Tags Generated
Created
Modified
Stats Distance 460 nm / 852 km
Max Altitude 0 ft / 0 m
Waypoints 4
Social Downloads 1
Likes 0
Share VATSIM

Download

Looking for another format? Having issues loading an existing format? Contact us
Advertisement - Login to hide

Notes

Generated

Route

EBOS PIMUP MT134 LFMT

ID Type Via Altitude Latitude Longitude Leg Dist Tot Dist Heading (true) Name
O EBOS APT - 0 ft / 0 m 51.19832˚ 2.86670˚ - 0 nm - -
PIMUP FIX - 0 ft / 0 m 47.54028˚ 3.38750˚ 220 nm 220 nm 175° / 175° -
MT134 FIX - 0 ft / 0 m 43.70183˚ 3.87906˚ 231 nm 452 nm 175° / 175° -
O LFMT APT - 0 ft / 0 m 43.57586˚ 3.95193˚ 8 nm 460 nm 157° / 157° -

Altitude Profile

Advertisement - Login to hide

Weather


0- 5 10 15 20 25 30 35+ Temperature / ° C

Clouds and Precipitation
Forecast for 2018-05-23 12:00 UTC. Updated 2 hours ago

Ground ~20,000 ft ~40,000 ft Winds

EBOS

Details ICAO EBOS (OST)
Name Oostende
Region Belgium
Timezone Europe/Brussels (UTC+2.0)
Stats Elevation 13 ft / 4 m (AMSL)
Location 51.199967° 2.875008°
Runways 1
Magnetic Variation 0.650° E

METAR

EBOS 231250Z 01011KT 9999 FEW006 15/12 Q1021 TEMPO 4500 -SHRA BKN007

Decode

TAF

TAF EBOS 231100Z 2312/2418 03008KT 8000 SCT040 PROB30 TEMPO 2312/2314 4500 BR BKN009 PROB30 TEMPO 2315/2321 VRB15G25KT 4000 SHRA PROB40 TEMPO 2415/2418 VRB18G28KT 3500 SHRA TSRAGR

Decode

Departure Runways

ID Width Length Bearing (true) Bearing (mag) Surface Threshold Offset Overrun Length
08 148 ft / 45 m 10,515 ft / 3,205 m 76.36° 75.71° Asphalt 984 ft / 300 m 0 ft / 0 m
26 148 ft / 45 m 10,515 ft / 3,205 m 256.39° 255.74° Asphalt 1,362 ft / 415 m 0 ft / 0 m

LFMT

Details ICAO LFMT (MPL)
Name Montpellier/Mediterranee
Region France
Timezone Europe/Paris (UTC+2.0)
Stats Elevation 16 ft / 5 m (AMSL)
Location 43.576262° 3.963261°
Runways 2
Magnetic Variation 1.298° E

METAR

LFMT 231300Z AUTO 19007KT 160V220 9999 VCTS FEW013/// ///CB 22/16 Q1017 BECMG NSW

Decode

TAF

TAF AMD LFMT 231225Z 2312/2409 18010KT CAVOK TEMPO 2312/2315 SCT040CB BECMG 2319/2321 BKN010 BECMG 2322/2324 VRB03KT TEMPO 2400/2408 2000 BR OVC004

Decode

Destination Runways

ID Width Length Bearing (true) Bearing (mag) Surface Threshold Offset Overrun Length
13L 164 ft / 50 m 8,525 ft / 2,598 m 124.78° 123.48° Asphalt 0 ft / 0 m 0 ft / 0 m
13R 98 ft / 30 m 3,611 ft / 1,101 m 124.80° 123.50° Asphalt 328 ft / 100 m 0 ft / 0 m
31L 98 ft / 30 m 3,611 ft / 1,101 m 304.81° 303.51° Asphalt 0 ft / 0 m 0 ft / 0 m
31R 164 ft / 50 m 8,525 ft / 2,598 m 304.80° 303.50° Asphalt 0 ft / 0 m 0 ft / 0 m

Approach Navaids

Runway Type Ident Frequency Range Bearing (true) Bearing (mag) Slope Elevation
31R Localiser FG 108.55 MHz 27 nm / 50 km 304.75° 303.45° - 16 ft / 5 m (AMSL)
31R Glidescope FG 108.55 MHz 27 nm / 50 km 304.75° 303.45° 3.00° 16 ft / 5 m (AMSL)
31R DME FG 108.55 MHz 27 nm / 50 km - - - 16 ft / 5 m (AMSL)